Time;durP1;ratioP1;P1;durP2;ratioP2;P2;SDS_P1;SDS_P2;PMS_P1;PMS_P2;Temp;Humidity;BMP_temperature;BMP_pressure;BME280_temperature;BME280_humidity;BME280_pressure;Samples;Min_cycle;Max_cycle;Signal;HPM_P1;HPM_P2
2022/04/28 00:01:56;;;;;;;27.70;14.63;;;13.20;99.90;;;;;;5017739;28;20436;-88
2022/04/28 00:04:22;;;;;;;31.63;17.30;;;13.20;99.90;;;;;;5034354;28;20414;-88
2022/04/28 00:06:48;;;;;;;28.50;15.97;;;13.20;99.90;;;;;;5017318;28;20209;-88
2022/04/28 00:09:14;;;;;;;34.87;16.90;;;13.10;99.90;;;;;;5035508;28;20178;-89
2022/04/28 00:11:40;;;;;;;24.47;14.13;;;13.20;99.90;;;;;;5035883;28;20253;-91
2022/04/28 00:14:07;;;;;;;25.13;14.13;;;13.10;99.90;;;;;;5018074;28;20479;-91
2022/04/28 00:16:37;;;;;;;25.03;13.93;;;13.10;99.90;;;;;;5028271;28;20419;-88
2022/04/28 00:19:03;;;;;;;28.63;15.02;;;13.10;99.90;;;;;;5056650;28;20419;-91
2022/04/28 00:21:29;;;;;;;26.10;15.30;;;13.10;99.90;;;;;;5055814;28;20201;-88
2022/04/28 00:23:56;;;;;;;29.00;15.37;;;13.10;99.90;;;;;;5055422;28;20447;-91
2022/04/28 00:26:22;;;;;;;30.43;14.10;;;13.00;99.90;;;;;;5036534;28;20425;-90
2022/04/28 00:28:48;;;;;;;30.00;13.87;;;13.10;99.90;;;;;;5037607;28;20188;-88
2022/04/28 00:31:14;;;;;;;25.03;15.87;;;13.00;99.90;;;;;;5055860;28;20250;-89
2022/04/28 00:33:42;;;;;;;24.20;12.37;;;13.00;99.90;;;;;;5055998;28;20239;-88
2022/04/28 00:36:09;;;;;;;25.20;12.30;;;13.00;99.90;;;;;;5038010;28;20548;-91
2022/04/28 00:38:35;;;;;;;26.90;14.47;;;13.00;99.90;;;;;;5038009;28;20511;-91
2022/04/28 00:41:01;;;;;;;22.13;13.33;;;13.10;99.90;;;;;;5056499;28;20399;-87
2022/04/28 00:43:30;;;;;;;24.63;13.00;;;13.10;99.90;;;;;;5057025;28;20194;-89
2022/04/28 00:45:56;;;;;;;23.97;12.40;;;13.00;99.90;;;;;;5040702;28;20419;-88
2022/04/28 00:51:08;;;;;;;23.00;13.73;;;13.00;99.90;;;;;;5057305;28;20978;-91
2022/04/28 00:53:37;;;;;;;22.73;12.83;;;13.00;99.90;;;;;;5057087;28;20971;-89
2022/04/28 00:56:04;;;;;;;22.08;12.50;;;13.00;99.90;;;;;;5042799;28;20471;-88
2022/04/28 00:58:30;;;;;;;22.27;12.07;;;13.00;99.90;;;;;;5053781;28;20201;-88
2022/04/28 01:00:58;;;;;;;25.30;13.93;;;13.00;99.90;;;;;;5035543;28;20909;-88
2022/04/28 01:03:24;;;;;;;19.37;10.60;;;13.00;99.90;;;;;;5035896;28;20970;-88
2022/04/28 01:05:50;;;;;;;19.27;9.97;;;13.00;99.90;;;;;;5036441;28;20415;-88
2022/04/28 01:08:16;;;;;;;23.07;12.90;;;13.00;99.90;;;;;;5054526;28;20972;-89
2022/04/28 01:10:41;;;;;;;19.23;11.67;;;13.00;99.90;;;;;;5053110;28;20309;-88
2022/04/28 01:13:07;;;;;;;21.13;11.93;;;13.00;99.90;;;;;;5035292;28;20213;-90
2022/04/28 01:15:47;;;;;;;18.83;11.00;;;13.00;99.90;;;;;;5048937;28;20165;-87
2022/04/28 01:18:13;;;;;;;23.33;11.73;;;13.00;99.90;;;;;;5013171;28;20203;-91
2022/04/28 01:20:39;;;;;;;20.43;12.57;;;12.90;99.90;;;;;;5013721;28;20416;-88
2022/04/28 01:23:05;;;;;;;19.07;11.60;;;12.90;99.90;;;;;;5012386;28;20444;-90
2022/04/28 01:25:31;;;;;;;17.80;10.93;;;12.90;99.90;;;;;;5012155;28;20791;-88
2022/04/28 01:27:57;;;;;;;17.83;11.10;;;12.90;99.90;;;;;;5013570;28;20445;-88
2022/04/28 01:30:24;;;;;;;17.13;10.70;;;12.90;99.90;;;;;;5012998;28;20480;-89
2022/04/28 01:32:51;;;;;;;13.77;9.80;;;12.90;99.90;;;;;;5014339;28;20444;-91
2022/04/28 01:35:16;;;;;;;16.87;10.00;;;12.90;99.90;;;;;;5012987;28;20412;-90
2022/04/28 01:37:42;;;;;;;18.40;11.20;;;13.00;99.90;;;;;;5014007;28;20785;-88
2022/04/28 01:40:11;;;;;;;17.97;9.23;;;13.00;99.90;;;;;;5015772;28;20176;-90
2022/04/28 01:42:50;;;;;;;21.50;12.13;;;13.00;99.90;;;;;;5014718;28;20238;-88
2022/04/28 01:45:17;;;;;;;14.32;9.02;;;13.00;99.90;;;;;;5015658;28;20451;-87
2022/04/28 01:47:43;;;;;;;16.20;10.77;;;13.00;99.90;;;;;;5014808;28;20203;-88
2022/04/28 01:50:12;;;;;;;16.37;10.37;;;13.00;99.90;;;;;;5013645;28;20475;-87
2022/04/28 01:55:23;;;;;;;16.67;8.82;;;13.00;99.90;;;;;;5017196;28;20370;-89
2022/04/28 01:57:49;;;;;;;20.77;11.10;;;13.00;99.90;;;;;;5017165;28;20272;-91
2022/04/28 02:00:17;;;;;;;19.40;10.50;;;13.00;99.90;;;;;;5016572;28;20444;-87
2022/04/28 02:02:43;;;;;;;17.50;9.97;;;13.00;99.90;;;;;;5018645;28;20543;-90
2022/04/28 02:05:10;;;;;;;18.47;11.60;;;13.00;99.90;;;;;;5026837;28;20368;-88
2022/04/28 02:07:36;;;;;;;18.27;9.87;;;13.00;99.90;;;;;;5024192;28;20433;-89
2022/04/28 02:10:04;;;;;;;18.90;10.23;;;13.00;99.90;;;;;;5013573;28;20483;-90
2022/04/28 02:12:30;;;;;;;18.33;10.53;;;13.00;99.90;;;;;;5012916;28;20452;-88
2022/04/28 02:14:56;;;;;;;18.80;10.30;;;13.00;99.90;;;;;;5013116;28;20396;-88
2022/04/28 02:17:27;;;;;;;18.03;9.43;;;12.90;99.90;;;;;;5032564;28;20297;-91
2022/04/28 02:19:53;;;;;;;17.70;10.90;;;13.00;99.90;;;;;;5034574;28;20407;-91
2022/04/28 02:22:20;;;;;;;22.23;10.60;;;13.00;99.90;;;;;;5035044;28;20484;-90
2022/04/28 02:24:47;;;;;;;19.73;10.50;;;13.00;99.90;;;;;;5035437;28;20494;-87
2022/04/28 02:27:13;;;;;;;19.27;10.97;;;13.00;99.90;;;;;;5034611;28;20442;-87
2022/04/28 02:29:39;;;;;;;19.10;10.20;;;13.00;99.90;;;;;;5034904;28;20493;-91
2022/04/28 02:32:05;;;;;;;13.10;9.00;;;12.90;99.90;;;;;;5034344;28;20443;-88
2022/04/28 02:34:31;;;;;;;16.90;10.63;;;12.90;99.90;;;;;;5034121;28;20174;-88
2022/04/28 02:36:57;;;;;;;14.83;8.80;;;13.00;99.90;;;;;;5052264;28;20430;-87
2022/04/28 02:39:23;;;;;;;18.80;10.67;;;12.90;99.90;;;;;;5034503;28;20415;-90
2022/04/28 02:41:49;;;;;;;16.33;10.30;;;13.00;99.90;;;;;;5053135;28;20234;-91
2022/04/28 02:44:14;;;;;;;14.10;9.30;;;12.90;99.90;;;;;;5036040;28;20427;-87
2022/04/28 02:46:45;;;;;;;14.80;9.50;;;13.00;99.90;;;;;;5036271;28;20499;-88
2022/04/28 02:49:15;;;;;;;13.43;9.20;;;12.90;99.90;;;;;;5036518;28;20538;-88
2022/04/28 02:51:42;;;;;;;19.07;7.80;;;13.00;99.90;;;;;;5036429;28;20185;-88
2022/04/28 02:54:08;;;;;;;15.73;9.10;;;12.90;99.90;;;;;;5056024;28;20451;-88
2022/04/28 02:56:34;;;;;;;15.23;9.30;;;13.00;99.90;;;;;;5036459;28;20654;-90
2022/04/28 02:59:00;;;;;;;15.53;10.00;;;12.90;99.90;;;;;;5054323;28;20838;-87
2022/04/28 03:01:26;;;;;;;18.47;9.07;;;12.90;99.90;;;;;;5034252;28;20414;-88
2022/04/28 03:03:53;;;;;;;15.63;9.30;;;12.90;99.90;;;;;;5034239;28;20189;-87
2022/04/28 03:11:49;;;;;;;13.37;8.53;;;12.90;99.90;;;;;;5054854;28;20515;-87
2022/04/28 03:14:16;;;;;;;11.47;8.77;;;12.90;99.90;;;;;;5036361;28;20423;-88
2022/04/28 03:16:42;;;;;;;12.73;8.53;;;12.90;99.90;;;;;;5021280;28;20409;-88
2022/04/28 03:19:08;;;;;;;17.10;9.83;;;12.90;99.90;;;;;;5016724;28;20432;-88
2022/04/28 03:21:34;;;;;;;15.50;8.07;;;12.90;99.90;;;;;;5018755;28;20274;-90
2022/04/28 03:23:59;;;;;;;17.03;10.17;;;12.90;99.90;;;;;;5022608;28;20843;-90
2022/04/28 03:26:26;;;;;;;13.90;8.47;;;12.90;99.90;;;;;;5010372;28;20453;-91
2022/04/28 03:28:51;;;;;;;11.93;7.97;;;12.90;99.90;;;;;;5010664;28;20195;-88
2022/04/28 03:31:17;;;;;;;11.50;8.07;;;13.00;99.90;;;;;;5011500;28;20476;-90
2022/04/28 03:33:43;;;;;;;12.00;8.20;;;13.00;99.90;;;;;;5010512;28;20207;-88
2022/04/28 03:38:53;;;;;;;11.73;7.17;;;13.00;99.90;;;;;;5012689;28;20655;-89
2022/04/28 03:41:19;;;;;;;13.63;8.80;;;13.00;99.90;;;;;;5011514;28;20401;-88
2022/04/28 03:43:45;;;;;;;10.40;7.40;;;13.10;99.90;;;;;;5010451;28;20459;-88
2022/04/28 03:46:15;;;;;;;14.17;8.97;;;13.10;99.90;;;;;;5010872;28;20175;-88
2022/04/28 03:48:44;;;;;;;13.20;7.80;;;13.10;99.90;;;;;;5012072;28;20221;-88
2022/04/28 03:51:11;;;;;;;13.33;7.90;;;13.10;99.90;;;;;;5027616;28;20238;-88
2022/04/28 03:53:37;;;;;;;12.60;7.93;;;13.10;99.90;;;;;;5013902;28;20443;-91
2022/04/28 03:56:03;;;;;;;11.70;7.33;;;13.10;99.90;;;;;;5011044;28;20424;-89
2022/04/28 03:58:29;;;;;;;12.53;7.63;;;13.10;99.90;;;;;;5012395;28;20441;-91
2022/04/28 04:00:55;;;;;;;11.60;7.63;;;13.10;99.90;;;;;;5010223;28;20412;-89
2022/04/28 04:03:21;;;;;;;12.97;8.23;;;13.20;99.90;;;;;;5012410;28;20195;-88
2022/04/28 04:05:47;;;;;;;13.97;7.37;;;13.10;99.90;;;;;;5012156;28;20254;-88
2022/04/28 04:08:13;;;;;;;9.67;6.93;;;13.20;99.90;;;;;;5013652;28;20255;-90
2022/04/28 04:10:39;;;;;;;12.00;6.70;;;13.20;99.90;;;;;;5021966;28;20480;-88
2022/04/28 04:13:05;;;;;;;13.70;8.67;;;13.10;99.90;;;;;;5033487;28;20503;-91
2022/04/28 04:15:32;;;;;;;14.43;8.80;;;13.20;99.90;;;;;;5034832;28;20171;-90
2022/04/28 04:17:58;;;;;;;11.37;7.17;;;13.20;99.90;;;;;;5035054;28;20537;-88
2022/04/28 04:20:25;;;;;;;12.70;7.33;;;13.20;99.90;;;;;;5034614;28;20946;-88
2022/04/28 04:22:52;;;;;;;13.57;8.70;;;13.20;99.90;;;;;;5034976;28;20478;-91
2022/04/28 04:25:19;;;;;;;15.90;9.27;;;13.30;99.90;;;;;;5034984;28;20411;-90
2022/04/28 04:27:44;;;;;;;10.53;7.30;;;13.40;99.90;;;;;;5062361;28;20939;-87
2022/04/28 04:32:54;;;;;;;11.10;6.37;;;13.40;99.90;;;;;;5053666;28;20303;-91
2022/04/28 04:35:21;;;;;;;11.47;7.17;;;13.50;99.90;;;;;;5053904;28;20399;-90
2022/04/28 04:37:47;;;;;;;11.93;7.50;;;13.50;99.90;;;;;;5036210;28;20205;-88
2022/04/28 04:40:14;;;;;;;9.33;7.17;;;13.50;99.90;;;;;;5036955;28;20389;-90
2022/04/28 04:42:40;;;;;;;13.90;7.87;;;13.50;99.90;;;;;;5054024;28;20205;-88
2022/04/28 04:45:10;;;;;;;10.47;7.63;;;13.50;99.90;;;;;;5033450;28;20439;-89
2022/04/28 04:47:36;;;;;;;10.30;6.90;;;13.50;99.90;;;;;;5023817;28;20489;-88
2022/04/28 04:50:03;;;;;;;12.03;7.00;;;13.50;99.90;;;;;;5057580;27;20472;-91
2022/04/28 04:52:29;;;;;;;11.33;7.13;;;13.60;99.90;;;;;;5037434;28;20451;-91
2022/04/28 04:54:54;;;;;;;12.90;8.00;;;13.60;99.90;;;;;;5086415;27;20438;-88
2022/04/28 04:57:20;;;;;;;11.67;7.50;;;13.60;99.90;;;;;;5077500;27;20200;-91
2022/04/28 04:59:46;;;;;;;9.60;7.03;;;13.60;99.90;;;;;;5048165;27;20269;-92
2022/04/28 05:02:12;;;;;;;16.30;8.93;;;13.60;99.90;;;;;;5016757;28;20285;-93
2022/04/28 05:04:38;;;;;;;12.37;7.70;;;13.60;99.90;;;;;;5017048;28;20406;-89
2022/04/28 05:07:03;;;;;;;13.60;7.90;;;13.60;99.90;;;;;;5037414;27;20202;-88
2022/04/28 05:09:29;;;;;;;10.47;6.80;;;13.60;99.90;;;;;;5046797;28;20195;-90
2022/04/28 05:11:55;;;;;;;10.57;6.60;;;13.60;99.90;;;;;;5014439;28;20214;-93
2022/04/28 05:14:20;;;;;;;12.53;7.10;;;13.60;99.90;;;;;;5029034;28;20265;-88
2022/04/28 05:16:46;;;;;;;11.77;6.67;;;13.60;99.90;;;;;;5044868;27;20207;-93
2022/04/28 05:19:12;;;;;;;11.57;7.17;;;13.60;99.90;;;;;;5077352;28;20223;-93
2022/04/28 05:21:37;;;;;;;11.00;6.97;;;13.60;99.90;;;;;;5032446;28;20643;-93
2022/04/28 05:24:03;;;;;;;12.93;7.63;;;13.60;99.90;;;;;;5032234;28;20190;-93
2022/04/28 05:26:29;;;;;;;9.37;7.20;;;13.60;99.90;;;;;;5092494;27;20194;-92
2022/04/28 05:28:55;;;;;;;11.13;6.73;;;13.50;99.90;;;;;;5072796;27;20460;-89
2022/04/28 05:31:20;;;;;;;12.77;7.60;;;13.40;99.90;;;;;;5056747;27;20613;-88
2022/04/28 05:33:46;;;;;;;14.40;8.03;;;13.40;99.90;;;;;;5067114;27;20233;-92
2022/04/28 05:36:14;;;;;;;12.73;8.23;;;13.40;99.90;;;;;;5110745;27;20236;-92
2022/04/28 05:38:40;;;;;;;10.48;7.10;;;13.30;99.90;;;;;;5055580;28;20618;-88
2022/04/28 05:41:06;;;;;;;9.70;6.55;;;13.30;99.90;;;;;;5015995;28;20608;-92
2022/04/28 05:46:18;;;;;;;10.30;7.23;;;13.30;99.90;;;;;;5088557;27;20414;-91
2022/04/28 05:48:44;;;;;;;11.00;7.20;;;13.20;99.90;;;;;;5054167;27;20459;-92
2022/04/28 05:51:12;;;;;;;10.10;6.33;;;13.20;99.90;;;;;;5026889;28;20218;-91
2022/04/28 05:53:41;;;;;;;11.68;6.47;;;13.20;99.90;;;;;;5057756;27;20550;-92
2022/04/28 05:56:06;;;;;;;10.90;7.63;;;13.20;99.90;;;;;;5047095;28;20178;-87
2022/04/28 05:58:35;;;;;;;9.80;6.83;;;13.20;99.90;;;;;;5049172;27;20491;-87
2022/04/28 06:01:01;;;;;;;12.80;7.70;;;13.20;99.90;;;;;;5012583;28;20179;-93
2022/04/28 06:03:26;;;;;;;10.60;7.10;;;13.10;99.90;;;;;;5012637;28;20528;-88
2022/04/28 06:05:52;;;;;;;9.40;6.47;;;13.10;99.90;;;;;;5025551;27;20420;-92
2022/04/28 06:08:18;;;;;;;11.10;6.93;;;13.00;99.90;;;;;;5014721;28;20215;-88
2022/04/28 06:10:44;;;;;;;11.40;6.33;;;13.00;99.90;;;;;;5053537;28;20280;-87
2022/04/28 06:13:10;;;;;;;12.73;7.50;;;13.00;99.90;;;;;;5093358;28;20426;-88
2022/04/28 06:15:35;;;;;;;11.57;7.57;;;13.00;99.90;;;;;;5093663;28;20202;-88
2022/04/28 06:18:01;;;;;;;10.20;7.20;;;13.00;99.90;;;;;;5111702;28;20530;-88
2022/04/28 06:20:27;;;;;;;10.50;7.57;;;13.00;99.90;;;;;;5112651;28;20671;-92
2022/04/28 06:22:53;;;;;;;12.60;8.10;;;13.00;99.90;;;;;;5113223;27;20455;-89
2022/04/28 06:25:19;;;;;;;11.85;7.88;;;12.90;99.90;;;;;;5094359;28;20221;-91
2022/04/28 06:27:45;;;;;;;12.33;7.60;;;12.90;99.90;;;;;;5112362;28;20673;-87
2022/04/28 06:30:11;;;;;;;11.53;7.40;;;12.90;99.90;;;;;;5094425;28;20207;-91
2022/04/28 06:32:37;;;;;;;11.38;7.65;;;12.90;99.90;;;;;;5102957;27;20207;-87
2022/04/28 06:35:04;;;;;;;9.82;7.28;;;12.90;99.90;;;;;;5112578;28;20244;-88
2022/04/28 06:37:29;;;;;;;13.15;7.85;;;12.90;99.90;;;;;;5093434;28;20289;-92
2022/04/28 06:39:55;;;;;;;12.53;7.43;;;12.90;99.90;;;;;;5095014;28;20188;-90
2022/04/28 06:42:21;;;;;;;13.47;8.17;;;12.90;99.90;;;;;;5112370;28;20200;-92
2022/04/28 06:44:47;;;;;;;15.10;9.67;;;12.80;99.90;;;;;;5112996;28;20195;-88
2022/04/28 06:47:13;;;;;;;12.48;7.47;;;12.90;99.90;;;;;;5096374;28;20440;-89
2022/04/28 06:49:39;;;;;;;11.67;7.00;;;12.80;99.90;;;;;;5095833;28;20219;-87
2022/04/28 06:52:05;;;;;;;10.60;7.20;;;12.80;99.90;;;;;;5081407;28;20815;-88
2022/04/28 06:54:31;;;;;;;18.07;9.30;;;12.80;99.90;;;;;;5088708;28;20530;-91
2022/04/28 06:56:58;;;;;;;10.80;7.55;;;12.90;99.90;;;;;;5095876;28;20477;-89
2022/04/28 06:59:24;;;;;;;14.05;8.75;;;12.90;99.90;;;;;;5092644;27;20199;-88
2022/04/28 07:01:50;;;;;;;12.97;8.20;;;12.80;99.90;;;;;;5092916;28;20842;-92
2022/04/28 07:04:16;;;;;;;12.93;8.07;;;12.90;99.90;;;;;;5109345;28;20428;-92
2022/04/28 07:06:42;;;;;;;13.50;7.97;;;12.90;99.90;;;;;;5096660;28;20387;-87
2022/04/28 07:09:08;;;;;;;12.90;8.80;;;12.90;99.90;;;;;;5098049;28;20192;-92
2022/04/28 07:11:34;;;;;;;10.07;7.33;;;12.90;99.90;;;;;;5102262;27;20562;-88
2022/04/28 07:14:00;;;;;;;11.60;7.53;;;12.90;99.90;;;;;;5077802;28;20191;-93
2022/04/28 07:16:25;;;;;;;11.97;8.00;;;12.90;99.90;;;;;;5096697;28;20203;-87
2022/04/28 07:18:51;;;;;;;14.40;8.03;;;12.90;99.90;;;;;;5091763;28;20544;-88
2022/04/28 07:21:17;;;;;;;13.17;8.47;;;12.90;99.90;;;;;;5120692;28;20184;-88
2022/04/28 07:23:42;;;;;;;12.63;7.80;;;12.90;99.90;;;;;;5130216;28;20208;-93
2022/04/28 07:26:08;;;;;;;10.77;6.47;;;12.90;99.90;;;;;;5061641;27;20576;-91
2022/04/28 07:28:34;;;;;;;12.93;7.25;;;12.90;99.90;;;;;;5074859;27;20225;-87
2022/04/28 07:31:00;;;;;;;13.03;8.00;;;12.90;99.90;;;;;;5106078;28;20215;-88
2022/04/28 07:33:26;;;;;;;17.33;9.35;;;12.90;99.90;;;;;;5080728;28;20203;-92
2022/04/28 07:35:52;;;;;;;12.77;8.63;;;12.90;99.90;;;;;;5105863;28;20180;-89
2022/04/28 07:38:17;;;;;;;12.47;8.63;;;13.00;99.90;;;;;;5105890;28;20203;-88
2022/04/28 07:40:43;;;;;;;14.53;8.83;;;13.00;99.90;;;;;;5096555;28;20219;-91
2022/04/28 07:43:09;;;;;;;15.90;9.00;;;13.00;99.90;;;;;;5110007;28;20211;-92
2022/04/28 07:45:34;;;;;;;13.07;7.97;;;13.00;99.90;;;;;;5103224;28;20254;-92
2022/04/28 07:48:00;;;;;;;16.80;9.30;;;13.00;99.90;;;;;;5093730;28;20206;-92
2022/04/28 07:50:28;;;;;;;15.30;8.73;;;13.00;99.90;;;;;;5113305;28;20630;-91
2022/04/28 07:52:54;;;;;;;10.67;7.47;;;13.00;99.90;;;;;;5104323;28;20211;-87
2022/04/28 07:55:20;;;;;;;15.13;9.10;;;13.10;99.90;;;;;;5105206;28;20423;-87
2022/04/28 07:57:46;;;;;;;14.87;9.37;;;13.10;99.90;;;;;;5109955;28;20206;-87
2022/04/28 08:00:12;;;;;;;13.27;9.00;;;13.10;99.90;;;;;;5106079;28;20694;-92
2022/04/28 08:02:38;;;;;;;14.25;9.05;;;13.10;99.90;;;;;;5078506;28;20454;-95
2022/04/28 08:05:04;;;;;;;17.43;8.77;;;13.10;99.90;;;;;;5097789;28;20571;-94
2022/04/28 08:07:31;;;;;;;13.18;8.60;;;13.20;99.90;;;;;;5103340;28;20203;-87
2022/04/28 08:09:57;;;;;;;14.70;8.95;;;13.20;99.90;;;;;;5117691;28;20736;-87
2022/04/28 08:12:23;;;;;;;15.20;9.53;;;13.30;99.90;;;;;;5094420;28;20238;-87
2022/04/28 08:14:49;;;;;;;14.00;8.80;;;13.30;99.90;;;;;;5091990;28;20457;-87
2022/04/28 08:17:15;;;;;;;14.97;9.40;;;13.30;99.90;;;;;;5091947;28;20199;-87
2022/04/28 08:19:41;;;;;;;11.60;8.23;;;13.40;99.90;;;;;;5095358;28;20419;-87
2022/04/28 08:22:07;;;;;;;12.03;8.20;;;13.40;99.90;;;;;;5096735;28;20200;-87
2022/04/28 08:24:33;;;;;;;12.93;9.23;;;13.40;99.90;;;;;;5095893;28;20544;-86
2022/04/28 08:26:59;;;;;;;14.13;8.70;;;13.40;99.90;;;;;;5101024;28;20810;-87
2022/04/28 08:29:25;;;;;;;12.30;8.53;;;13.50;99.90;;;;;;5116152;28;20540;-86
2022/04/28 08:31:51;;;;;;;20.30;9.70;;;13.50;99.90;;;;;;5096610;28;20534;-87
2022/04/28 08:34:18;;;;;;;14.17;10.10;;;13.50;99.90;;;;;;5107501;28;20439;-87
2022/04/28 08:36:46;;;;;;;13.60;8.57;;;13.60;99.90;;;;;;5111648;28;20195;-93
2022/04/28 08:39:12;;;;;;;10.80;7.80;;;13.60;99.90;;;;;;5114359;28;20427;-95
2022/04/28 08:41:42;;;;;;;14.60;8.77;;;13.60;99.90;;;;;;5094880;28;20418;-94
2022/04/28 08:44:18;;;;;;;11.90;8.27;;;13.60;99.90;;;;;;5091017;28;20707;-93
2022/04/28 08:46:51;;;;;;;12.27;8.70;;;13.60;99.90;;;;;;5096383;28;20443;-94
2022/04/28 08:49:29;;;;;;;18.27;8.97;;;13.60;99.90;;;;;;5096616;28;20451;-94
2022/04/28 08:51:56;;;;;;;17.57;9.30;;;13.60;99.90;;;;;;5126833;28;20968;-94
2022/04/28 08:54:25;;;;;;;13.67;9.50;;;13.60;99.90;;;;;;5093822;28;20964;-93
2022/04/28 08:56:52;;;;;;;13.90;8.50;;;13.60;99.90;;;;;;5112994;28;20439;-94
2022/04/28 08:59:23;;;;;;;13.73;9.80;;;13.60;99.90;;;;;;5096018;28;20514;-93
2022/04/28 09:01:50;;;;;;;12.60;8.90;;;13.50;99.90;;;;;;5116763;28;20436;-94
2022/04/28 09:04:17;;;;;;;12.53;8.50;;;13.50;99.90;;;;;;5098750;28;20443;-95
2022/04/28 09:06:43;;;;;;;14.87;10.00;;;13.50;99.90;;;;;;5099478;28;20452;-93
2022/04/28 09:09:20;;;;;;;16.00;10.13;;;13.50;99.90;;;;;;5100185;28;20444;-94
2022/04/28 09:11:47;;;;;;;19.10;11.27;;;13.50;99.90;;;;;;5029811;28;20517;-94
2022/04/28 09:14:17;;;;;;;16.33;9.97;;;13.50;99.90;;;;;;5040977;27;21004;-94
2022/04/28 09:16:56;;;;;;;11.33;7.67;;;13.50;99.90;;;;;;5015184;28;20810;-95
2022/04/28 09:19:28;;;;;;;13.60;8.80;;;13.50;99.90;;;;;;5016896;27;20436;-95
2022/04/28 09:22:00;;;;;;;15.73;9.37;;;13.50;99.90;;;;;;5039693;28;20452;-95
2022/04/28 09:24:27;;;;;;;13.57;8.10;;;13.50;99.90;;;;;;5024418;28;20543;-94
2022/04/28 09:26:55;;;;;;;13.67;9.13;;;13.50;99.90;;;;;;5023974;27;20501;-95
2022/04/28 09:29:24;;;;;;;14.30;8.45;;;13.50;99.90;;;;;;5028797;28;20444;-95
2022/04/28 09:31:51;;;;;;;12.70;8.93;;;13.50;99.90;;;;;;5013206;28;20218;-95
2022/04/28 09:34:19;;;;;;;15.20;9.13;;;13.60;99.90;;;;;;5044619;27;20471;-94
2022/04/28 09:36:46;;;;;;;17.13;9.90;;;13.60;99.90;;;;;;5014282;27;20459;-96
2022/04/28 09:44:56;;;;;;;14.40;9.33;;;13.70;99.90;;;;;;5058807;27;20818;-88
2022/04/28 09:47:23;;;;;;;14.30;9.33;;;13.80;99.90;;;;;;5031721;28;20451;-95
2022/04/28 09:49:55;;;;;;;14.23;8.70;;;13.80;99.90;;;;;;5068812;28;21009;-95
2022/04/28 09:52:30;;;;;;;14.63;8.80;;;13.80;99.90;;;;;;5013165;27;20949;-95
2022/04/28 09:55:03;;;;;;;14.00;9.53;;;13.70;99.90;;;;;;4995149;28;20431;-94
2022/04/28 09:57:30;;;;;;;13.47;8.67;;;13.80;99.90;;;;;;5016229;28;20462;-95
2022/04/28 09:59:57;;;;;;;12.87;9.30;;;13.70;99.90;;;;;;5015046;28;20479;-94
2022/04/28 10:02:25;;;;;;;11.53;7.77;;;13.70;99.90;;;;;;5016536;28;20464;-95
2022/04/28 10:04:53;;;;;;;13.53;8.73;;;13.70;99.90;;;;;;5035317;28;20762;-88
2022/04/28 10:07:19;;;;;;;11.90;8.00;;;13.70;99.90;;;;;;5023289;28;20451;-95
2022/04/28 10:09:48;;;;;;;12.93;9.70;;;13.70;99.90;;;;;;5011130;28;20399;-87
2022/04/28 10:12:17;;;;;;;12.43;8.40;;;13.80;99.90;;;;;;5014367;28;20463;-88
2022/04/28 10:14:43;;;;;;;13.70;9.60;;;13.80;99.90;;;;;;5010039;28;20424;-93
2022/04/28 10:17:12;;;;;;;13.40;8.43;;;13.80;99.90;;;;;;5010685;28;20460;-94
2022/04/28 10:19:43;;;;;;;15.87;9.50;;;13.90;99.90;;;;;;5021214;28;20183;-88
2022/04/28 10:22:17;;;;;;;13.63;8.20;;;13.90;99.90;;;;;;5009270;28;20438;-90
2022/04/28 10:33:06;;;;;;;12.33;7.70;;;14.20;99.90;;;;;;5027828;28;20516;-95
2022/04/28 10:35:33;;;;;;;13.10;8.40;;;14.40;99.90;;;;;;5037169;28;20420;-87
2022/04/28 10:38:11;;;;;;;12.73;7.97;;;14.50;99.90;;;;;;5034967;28;20474;-87
2022/04/28 10:40:43;;;;;;;14.33;7.40;;;14.70;99.90;;;;;;5065562;28;20420;-95
2022/04/28 10:43:45;;;;;;;14.20;8.97;;;14.90;99.90;;;;;;5048785;28;20462;-95
2022/04/28 10:46:11;;;;;;;12.67;7.83;;;15.10;99.90;;;;;;5053829;28;20477;-88
2022/04/28 10:48:45;;;;;;;12.23;7.90;;;15.20;99.90;;;;;;5035623;27;20468;-88
2022/04/28 10:51:30;;;;;;;11.50;7.20;;;15.30;99.90;;;;;;5027715;28;20575;-94
2022/04/28 10:54:06;;;;;;;11.23;7.03;;;15.50;99.90;;;;;;5009477;28;20450;-94
2022/04/28 10:56:44;;;;;;;14.30;7.33;;;15.60;99.90;;;;;;5040041;28;20438;-87
2022/04/28 10:59:34;;;;;;;13.60;8.23;;;15.70;99.90;;;;;;5046625;28;20465;-87
2022/04/28 11:02:15;;;;;;;11.10;8.33;;;15.80;99.90;;;;;;5030352;28;20452;-87
2022/04/28 11:05:01;;;;;;;14.30;8.60;;;15.90;99.90;;;;;;5027644;28;20439;-96
2022/04/28 11:07:30;;;;;;;13.00;8.20;;;16.00;99.90;;;;;;5052995;28;20474;-87
2022/04/28 11:10:01;;;;;;;11.70;7.30;;;16.10;99.90;;;;;;5048918;28;20488;-87
2022/04/28 11:12:35;;;;;;;14.47;8.73;;;16.20;99.90;;;;;;5051345;28;21691;-88
2022/04/28 11:15:14;;;;;;;11.80;7.60;;;16.30;99.90;;;;;;5020968;28;20471;-87
2022/04/28 11:17:44;;;;;;;12.43;7.83;;;16.40;99.90;;;;;;5015974;28;20490;-88
2022/04/28 11:20:20;;;;;;;12.93;8.53;;;16.50;99.90;;;;;;5020713;28;20430;-87
2022/04/28 11:22:54;;;;;;;13.90;7.67;;;16.60;99.90;;;;;;5042474;28;20483;-95
2022/04/28 11:25:22;;;;;;;11.20;7.53;;;16.70;99.90;;;;;;5031587;28;20423;-94
2022/04/28 11:27:50;;;;;;;10.77;7.50;;;16.90;99.90;;;;;;5029332;28;20447;-94
2022/04/28 11:30:22;;;;;;;13.43;7.80;;;17.00;99.90;;;;;;5054250;27;20495;-87
2022/04/28 11:32:56;;;;;;;12.33;7.90;;;17.20;99.90;;;;;;5059892;28;20450;-94
2022/04/28 11:35:28;;;;;;;11.50;8.00;;;17.20;99.90;;;;;;5038929;28;20981;-87
2022/04/28 11:37:55;;;;;;;8.23;6.80;;;17.30;99.90;;;;;;5040533;28;20816;-95
2022/04/28 11:40:22;;;;;;;11.90;8.07;;;17.30;99.90;;;;;;5042851;28;20427;-95
2022/04/28 11:42:59;;;;;;;9.97;6.87;;;17.30;99.90;;;;;;5053398;28;20526;-87
2022/04/28 11:45:26;;;;;;;12.23;8.67;;;17.40;99.90;;;;;;5029997;28;20419;-95
2022/04/28 11:48:05;;;;;;;11.00;7.23;;;17.40;99.90;;;;;;5026516;28;20460;-88
2022/04/28 11:50:34;;;;;;;13.93;7.97;;;17.40;99.90;;;;;;5089225;28;20563;-88
2022/04/28 11:53:03;;;;;;;10.80;6.90;;;17.40;99.90;;;;;;5017035;28;20515;-95
2022/04/28 11:55:31;;;;;;;11.37;8.00;;;17.50;99.90;;;;;;5048461;28;20451;-88
2022/04/28 11:57:57;;;;;;;12.60;8.57;;;17.40;99.90;;;;;;5041254;28;20479;-87
2022/04/28 12:00:25;;;;;;;43.03;22.83;;;17.40;99.90;;;;;;5023074;28;20434;-95
2022/04/28 12:02:55;;;;;;;24.93;17.93;;;17.40;99.90;;;;;;5006980;28;21011;-87
2022/04/28 12:05:23;;;;;;;20.13;14.20;;;17.40;99.90;;;;;;5015782;28;20474;-95
2022/04/28 12:07:51;;;;;;;14.90;10.27;;;17.40;99.90;;;;;;5030673;28;20444;-95
2022/04/28 12:16:13;;;;;;;10.10;7.47;;;17.40;99.90;;;;;;5037267;28;20478;-94
2022/04/28 12:21:32;;;;;;;12.17;8.80;;;17.50;99.90;;;;;;5029785;28;20407;-95
2022/04/28 12:24:00;;;;;;;12.00;7.87;;;17.50;99.90;;;;;;5035177;28;20510;-88
2022/04/28 12:26:31;;;;;;;13.07;8.13;;;17.60;99.90;;;;;;5023599;28;20435;-87
2022/04/28 12:29:13;;;;;;;9.63;7.90;;;17.60;99.90;;;;;;5070131;28;20518;-87
2022/04/28 12:31:40;;;;;;;10.80;8.00;;;17.60;99.90;;;;;;5029415;28;21042;-94
2022/04/28 12:34:11;;;;;;;13.13;8.37;;;17.60;99.90;;;;;;5021404;28;20636;-93
2022/04/28 12:36:55;;;;;;;11.23;7.83;;;17.50;99.90;;;;;;5014082;28;20523;-94
2022/04/28 12:39:21;;;;;;;12.90;7.70;;;17.50;99.90;;;;;;5005993;28;20483;-94
2022/04/28 12:41:48;;;;;;;10.13;7.87;;;17.50;99.90;;;;;;5062884;28;20454;-94
2022/04/28 12:44:14;;;;;;;12.40;8.80;;;17.40;99.90;;;;;;5012530;28;20951;-93
2022/04/28 12:46:44;;;;;;;10.27;7.57;;;17.40;99.90;;;;;;5039689;28;20420;-86
2022/04/28 12:49:12;;;;;;;12.90;8.60;;;17.40;99.90;;;;;;5031931;28;20166;-87
2022/04/28 12:51:51;;;;;;;9.83;7.27;;;17.30;99.90;;;;;;5028222;28;20491;-87
2022/04/28 12:54:19;;;;;;;10.00;7.80;;;17.30;99.90;;;;;;5011994;28;20439;-87
2022/04/28 12:56:46;;;;;;;10.07;8.10;;;17.20;99.90;;;;;;5022095;28;20456;-87
2022/04/28 12:59:14;;;;;;;11.37;7.60;;;17.20;99.90;;;;;;5022764;28;20424;-94
2022/04/28 13:01:42;;;;;;;11.90;8.03;;;17.20;99.90;;;;;;5021944;28;21058;-94
2022/04/28 13:04:12;;;;;;;11.70;7.70;;;17.20;99.90;;;;;;5032267;28;20408;-94
2022/04/28 13:06:40;;;;;;;10.90;7.63;;;17.10;99.90;;;;;;5033084;28;20469;-94
2022/04/28 13:09:07;;;;;;;9.10;7.20;;;17.10;99.90;;;;;;5056631;27;20426;-94
2022/04/28 13:11:35;;;;;;;11.70;7.43;;;17.10;99.90;;;;;;5097969;27;20475;-94
2022/04/28 13:14:04;;;;;;;11.20;6.43;;;17.00;99.90;;;;;;5074142;28;20416;-95
2022/04/28 13:16:31;;;;;;;11.23;7.17;;;17.00;99.90;;;;;;5102799;28;20480;-94
2022/04/28 13:18:57;;;;;;;11.27;7.50;;;16.90;99.90;;;;;;5108599;28;20920;-93
2022/04/28 13:21:24;;;;;;;13.40;7.17;;;16.70;99.90;;;;;;5059011;27;20442;-94